sensor_id;sensor_type;location;lat;lon;timestamp;P1;durP1;ratioP1;P2;durP2;ratioP2
3943;SDS011;1986;52.546;13.428;2023-12-29T00:00:06;13.90;;;13.60;;
3943;SDS011;1986;52.546;13.428;2023-12-29T00:02:36;13.87;;;13.57;;
3943;SDS011;1986;52.546;13.428;2023-12-29T00:05:03;13.80;;;13.50;;
3943;SDS011;1986;52.546;13.428;2023-12-29T00:07:32;13.70;;;13.40;;
3943;SDS011;1986;52.546;13.428;2023-12-29T00:10:00;13.80;;;13.50;;
3943;SDS011;1986;52.546;13.428;2023-12-29T00:12:27;13.80;;;13.50;;
3943;SDS011;1986;52.546;13.428;2023-12-29T00:14:54;13.70;;;13.40;;
3943;SDS011;1986;52.546;13.428;2023-12-29T00:17:21;13.90;;;13.60;;
3943;SDS011;1986;52.546;13.428;2023-12-29T00:19:50;14.10;;;13.80;;
3943;SDS011;1986;52.546;13.428;2023-12-29T00:22:18;14.00;;;13.70;;
3943;SDS011;1986;52.546;13.428;2023-12-29T00:24:46;14.10;;;13.80;;
3943;SDS011;1986;52.546;13.428;2023-12-29T00:27:13;14.00;;;13.70;;
3943;SDS011;1986;52.546;13.428;2023-12-29T00:29:40;14.00;;;13.70;;
3943;SDS011;1986;52.546;13.428;2023-12-29T00:32:07;14.17;;;13.87;;
3943;SDS011;1986;52.546;13.428;2023-12-29T00:34:34;14.10;;;13.80;;
3943;SDS011;1986;52.546;13.428;2023-12-29T00:37:04;13.80;;;13.50;;
3943;SDS011;1986;52.546;13.428;2023-12-29T00:39:31;14.00;;;13.70;;
3943;SDS011;1986;52.546;13.428;2023-12-29T00:42:04;13.80;;;13.50;;
3943;SDS011;1986;52.546;13.428;2023-12-29T00:44:31;14.30;;;13.90;;
3943;SDS011;1986;52.546;13.428;2023-12-29T00:46:58;14.10;;;13.80;;
3943;SDS011;1986;52.546;13.428;2023-12-29T00:49:25;14.10;;;13.80;;
3943;SDS011;1986;52.546;13.428;2023-12-29T00:51:55;14.17;;;13.87;;
3943;SDS011;1986;52.546;13.428;2023-12-29T00:54:25;14.23;;;13.90;;
3943;SDS011;1986;52.546;13.428;2023-12-29T00:56:52;14.30;;;13.90;;
3943;SDS011;1986;52.546;13.428;2023-12-29T00:59:19;14.20;;;13.80;;
3943;SDS011;1986;52.546;13.428;2023-12-29T01:01:46;14.40;;;14.00;;
3943;SDS011;1986;52.546;13.428;2023-12-29T01:04:13;14.73;;;14.33;;
3943;SDS011;1986;52.546;13.428;2023-12-29T01:06:40;14.40;;;14.00;;
3943;SDS011;1986;52.546;13.428;2023-12-29T01:09:07;14.50;;;14.10;;
3943;SDS011;1986;52.546;13.428;2023-12-29T01:11:36;14.40;;;14.00;;
3943;SDS011;1986;52.546;13.428;2023-12-29T01:14:03;14.50;;;14.10;;
3943;SDS011;1986;52.546;13.428;2023-12-29T01:16:30;14.63;;;14.23;;
3943;SDS011;1986;52.546;13.428;2023-12-29T01:18:57;14.50;;;14.10;;
3943;SDS011;1986;52.546;13.428;2023-12-29T01:21:24;14.43;;;14.03;;
3943;SDS011;1986;52.546;13.428;2023-12-29T01:23:51;14.50;;;14.10;;
3943;SDS011;1986;52.546;13.428;2023-12-29T01:26:18;14.50;;;14.10;;
3943;SDS011;1986;52.546;13.428;2023-12-29T01:28:46;14.50;;;14.10;;
3943;SDS011;1986;52.546;13.428;2023-12-29T01:31:13;14.27;;;13.87;;
3943;SDS011;1986;52.546;13.428;2023-12-29T01:33:40;14.30;;;13.90;;
3943;SDS011;1986;52.546;13.428;2023-12-29T01:36:07;14.50;;;14.10;;
3943;SDS011;1986;52.546;13.428;2023-12-29T01:38:34;14.87;;;14.47;;
3943;SDS011;1986;52.546;13.428;2023-12-29T01:41:01;14.80;;;14.40;;
3943;SDS011;1986;52.546;13.428;2023-12-29T01:43:29;14.60;;;14.20;;
3943;SDS011;1986;52.546;13.428;2023-12-29T01:45:57;14.73;;;14.33;;
3943;SDS011;1986;52.546;13.428;2023-12-29T01:48:24;14.70;;;14.30;;
3943;SDS011;1986;52.546;13.428;2023-12-29T01:50:52;14.60;;;14.20;;
3943;SDS011;1986;52.546;13.428;2023-12-29T01:53:20;14.63;;;14.23;;
3943;SDS011;1986;52.546;13.428;2023-12-29T01:55:47;14.70;;;14.30;;
3943;SDS011;1986;52.546;13.428;2023-12-29T01:58:15;14.70;;;14.30;;
3943;SDS011;1986;52.546;13.428;2023-12-29T02:00:42;14.90;;;14.50;;
3943;SDS011;1986;52.546;13.428;2023-12-29T02:03:11;15.20;;;14.80;;
3943;SDS011;1986;52.546;13.428;2023-12-29T02:05:56;14.67;;;14.27;;
3943;SDS011;1986;52.546;13.428;2023-12-29T02:08:26;14.80;;;14.40;;
3943;SDS011;1986;52.546;13.428;2023-12-29T02:10:54;14.80;;;14.40;;
3943;SDS011;1986;52.546;13.428;2023-12-29T02:13:21;14.80;;;14.40;;
3943;SDS011;1986;52.546;13.428;2023-12-29T02:15:48;14.77;;;14.37;;
3943;SDS011;1986;52.546;13.428;2023-12-29T02:18:20;14.60;;;14.20;;
3943;SDS011;1986;52.546;13.428;2023-12-29T02:20:52;14.67;;;14.27;;
3943;SDS011;1986;52.546;13.428;2023-12-29T02:23:21;14.70;;;14.30;;
3943;SDS011;1986;52.546;13.428;2023-12-29T02:25:49;14.77;;;14.37;;
3943;SDS011;1986;52.546;13.428;2023-12-29T02:28:19;14.60;;;14.20;;
3943;SDS011;1986;52.546;13.428;2023-12-29T02:30:51;14.80;;;14.40;;
3943;SDS011;1986;52.546;13.428;2023-12-29T02:33:25;14.80;;;14.40;;
3943;SDS011;1986;52.546;13.428;2023-12-29T02:35:55;14.80;;;14.40;;
3943;SDS011;1986;52.546;13.428;2023-12-29T02:38:23;14.80;;;14.40;;
3943;SDS011;1986;52.546;13.428;2023-12-29T02:40:55;14.90;;;14.50;;
3943;SDS011;1986;52.546;13.428;2023-12-29T02:43:23;14.80;;;14.40;;
3943;SDS011;1986;52.546;13.428;2023-12-29T02:45:50;14.67;;;14.27;;
3943;SDS011;1986;52.546;13.428;2023-12-29T02:48:17;14.80;;;14.40;;
3943;SDS011;1986;52.546;13.428;2023-12-29T02:50:44;14.80;;;14.40;;
3943;SDS011;1986;52.546;13.428;2023-12-29T02:53:10;15.10;;;14.70;;
3943;SDS011;1986;52.546;13.428;2023-12-29T02:55:38;15.10;;;14.70;;
3943;SDS011;1986;52.546;13.428;2023-12-29T02:58:06;14.90;;;14.50;;
3943;SDS011;1986;52.546;13.428;2023-12-29T03:00:33;15.10;;;14.70;;
3943;SDS011;1986;52.546;13.428;2023-12-29T03:03:00;14.90;;;14.50;;
3943;SDS011;1986;52.546;13.428;2023-12-29T03:05:27;15.00;;;14.60;;
3943;SDS011;1986;52.546;13.428;2023-12-29T03:07:53;15.03;;;14.63;;
3943;SDS011;1986;52.546;13.428;2023-12-29T03:10:20;14.90;;;14.50;;
3943;SDS011;1986;52.546;13.428;2023-12-29T03:12:47;14.80;;;14.40;;
3943;SDS011;1986;52.546;13.428;2023-12-29T03:15:16;14.70;;;14.30;;
3943;SDS011;1986;52.546;13.428;2023-12-29T03:17:43;14.90;;;14.50;;
3943;SDS011;1986;52.546;13.428;2023-12-29T03:20:10;14.93;;;14.53;;
3943;SDS011;1986;52.546;13.428;2023-12-29T03:22:38;14.90;;;14.50;;
3943;SDS011;1986;52.546;13.428;2023-12-29T03:25:05;15.10;;;14.70;;
3943;SDS011;1986;52.546;13.428;2023-12-29T03:27:32;15.10;;;14.70;;
3943;SDS011;1986;52.546;13.428;2023-12-29T03:30:02;15.00;;;14.60;;
3943;SDS011;1986;52.546;13.428;2023-12-29T03:32:31;15.10;;;14.70;;
3943;SDS011;1986;52.546;13.428;2023-12-29T03:34:58;15.10;;;14.70;;
3943;SDS011;1986;52.546;13.428;2023-12-29T03:37:27;15.00;;;14.60;;
3943;SDS011;1986;52.546;13.428;2023-12-29T03:39:53;15.10;;;14.70;;
3943;SDS011;1986;52.546;13.428;2023-12-29T03:42:20;15.10;;;14.70;;
3943;SDS011;1986;52.546;13.428;2023-12-29T03:44:48;15.10;;;14.70;;
3943;SDS011;1986;52.546;13.428;2023-12-29T03:47:14;15.30;;;14.90;;
3943;SDS011;1986;52.546;13.428;2023-12-29T03:49:43;15.60;;;15.10;;
3943;SDS011;1986;52.546;13.428;2023-12-29T03:52:11;15.30;;;14.90;;
3943;SDS011;1986;52.546;13.428;2023-12-29T03:54:41;15.10;;;14.70;;
3943;SDS011;1986;52.546;13.428;2023-12-29T03:57:11;14.93;;;14.53;;
3943;SDS011;1986;52.546;13.428;2023-12-29T03:59:41;15.20;;;14.80;;
3943;SDS011;1986;52.546;13.428;2023-12-29T04:02:09;15.03;;;14.63;;
3943;SDS011;1986;52.546;13.428;2023-12-29T04:04:37;15.43;;;15.00;;
3943;SDS011;1986;52.546;13.428;2023-12-29T04:07:15;15.20;;;14.80;;
3943;SDS011;1986;52.546;13.428;2023-12-29T04:09:42;15.10;;;14.70;;
3943;SDS011;1986;52.546;13.428;2023-12-29T04:12:13;15.30;;;14.90;;
3943;SDS011;1986;52.546;13.428;2023-12-29T04:14:40;15.10;;;14.70;;
3943;SDS011;1986;52.546;13.428;2023-12-29T04:17:08;15.30;;;14.90;;
3943;SDS011;1986;52.546;13.428;2023-12-29T04:19:39;15.40;;;15.00;;
3943;SDS011;1986;52.546;13.428;2023-12-29T04:22:07;15.20;;;14.80;;
3943;SDS011;1986;52.546;13.428;2023-12-29T04:24:43;15.60;;;15.10;;
3943;SDS011;1986;52.546;13.428;2023-12-29T04:27:10;15.67;;;15.17;;
3943;SDS011;1986;52.546;13.428;2023-12-29T04:29:37;15.90;;;15.40;;
3943;SDS011;1986;52.546;13.428;2023-12-29T04:32:05;15.60;;;15.10;;
3943;SDS011;1986;52.546;13.428;2023-12-29T04:34:47;15.60;;;15.10;;
3943;SDS011;1986;52.546;13.428;2023-12-29T04:37:14;15.70;;;15.20;;
3943;SDS011;1986;52.546;13.428;2023-12-29T04:39:45;15.50;;;15.00;;
3943;SDS011;1986;52.546;13.428;2023-12-29T04:42:12;15.70;;;15.20;;
3943;SDS011;1986;52.546;13.428;2023-12-29T04:44:39;15.70;;;15.20;;
3943;SDS011;1986;52.546;13.428;2023-12-29T04:47:07;15.73;;;15.23;;
3943;SDS011;1986;52.546;13.428;2023-12-29T04:49:34;15.70;;;15.20;;
3943;SDS011;1986;52.546;13.428;2023-12-29T04:52:03;15.80;;;15.30;;
3943;SDS011;1986;52.546;13.428;2023-12-29T04:54:30;15.47;;;15.00;;
3943;SDS011;1986;52.546;13.428;2023-12-29T04:57:00;15.50;;;15.00;;
3943;SDS011;1986;52.546;13.428;2023-12-29T04:59:27;15.20;;;14.80;;
3943;SDS011;1986;52.546;13.428;2023-12-29T05:01:54;15.80;;;15.30;;
3943;SDS011;1986;52.546;13.428;2023-12-29T05:04:21;15.90;;;15.40;;
3943;SDS011;1986;52.546;13.428;2023-12-29T05:06:48;15.70;;;15.20;;
3943;SDS011;1986;52.546;13.428;2023-12-29T05:09:18;15.83;;;15.33;;
3943;SDS011;1986;52.546;13.428;2023-12-29T05:11:45;15.90;;;15.40;;
3943;SDS011;1986;52.546;13.428;2023-12-29T05:14:13;15.80;;;15.30;;
3943;SDS011;1986;52.546;13.428;2023-12-29T05:16:42;16.00;;;15.50;;
3943;SDS011;1986;52.546;13.428;2023-12-29T05:19:10;15.80;;;15.30;;
3943;SDS011;1986;52.546;13.428;2023-12-29T05:21:39;15.63;;;15.13;;
3943;SDS011;1986;52.546;13.428;2023-12-29T05:24:07;15.90;;;15.40;;
3943;SDS011;1986;52.546;13.428;2023-12-29T05:26:34;15.80;;;15.30;;
3943;SDS011;1986;52.546;13.428;2023-12-29T05:29:01;15.80;;;15.30;;
3943;SDS011;1986;52.546;13.428;2023-12-29T05:31:30;15.80;;;15.30;;
3943;SDS011;1986;52.546;13.428;2023-12-29T05:33:57;15.80;;;15.30;;
3943;SDS011;1986;52.546;13.428;2023-12-29T05:36:24;15.80;;;15.30;;
3943;SDS011;1986;52.546;13.428;2023-12-29T05:38:50;16.00;;;15.50;;
3943;SDS011;1986;52.546;13.428;2023-12-29T05:41:18;15.70;;;15.20;;
3943;SDS011;1986;52.546;13.428;2023-12-29T05:43:45;15.90;;;15.40;;
3943;SDS011;1986;52.546;13.428;2023-12-29T05:46:13;16.10;;;15.60;;
3943;SDS011;1986;52.546;13.428;2023-12-29T05:48:42;16.20;;;15.70;;
3943;SDS011;1986;52.546;13.428;2023-12-29T05:51:09;15.87;;;15.37;;
3943;SDS011;1986;52.546;13.428;2023-12-29T05:53:37;16.10;;;15.60;;
3943;SDS011;1986;52.546;13.428;2023-12-29T05:56:07;16.10;;;15.60;;
3943;SDS011;1986;52.546;13.428;2023-12-29T05:58:34;16.00;;;15.50;;
3943;SDS011;1986;52.546;13.428;2023-12-29T06:01:02;16.00;;;15.50;;
3943;SDS011;1986;52.546;13.428;2023-12-29T06:03:30;15.80;;;15.30;;
3943;SDS011;1986;52.546;13.428;2023-12-29T06:05:58;16.00;;;15.50;;
3943;SDS011;1986;52.546;13.428;2023-12-29T06:08:25;15.80;;;15.30;;
3943;SDS011;1986;52.546;13.428;2023-12-29T06:10:53;15.73;;;15.23;;
3943;SDS011;1986;52.546;13.428;2023-12-29T06:13:20;15.87;;;15.37;;
3943;SDS011;1986;52.546;13.428;2023-12-29T06:15:47;15.90;;;15.40;;
3943;SDS011;1986;52.546;13.428;2023-12-29T06:18:14;16.00;;;15.50;;
3943;SDS011;1986;52.546;13.428;2023-12-29T06:20:44;15.90;;;15.40;;
3943;SDS011;1986;52.546;13.428;2023-12-29T06:23:16;16.17;;;15.67;;
3943;SDS011;1986;52.546;13.428;2023-12-29T06:25:43;16.07;;;15.57;;
3943;SDS011;1986;52.546;13.428;2023-12-29T06:28:12;16.07;;;15.57;;
3943;SDS011;1986;52.546;13.428;2023-12-29T06:30:40;16.00;;;15.50;;
3943;SDS011;1986;52.546;13.428;2023-12-29T06:33:22;16.20;;;15.70;;
3943;SDS011;1986;52.546;13.428;2023-12-29T06:35:50;16.00;;;15.50;;
3943;SDS011;1986;52.546;13.428;2023-12-29T06:38:20;16.20;;;15.70;;
3943;SDS011;1986;52.546;13.428;2023-12-29T06:41:01;15.93;;;15.43;;
3943;SDS011;1986;52.546;13.428;2023-12-29T06:43:35;16.00;;;15.50;;
3943;SDS011;1986;52.546;13.428;2023-12-29T06:48:44;16.40;;;15.90;;
3943;SDS011;1986;52.546;13.428;2023-12-29T06:51:16;16.20;;;15.70;;
3943;SDS011;1986;52.546;13.428;2023-12-29T06:53:58;16.30;;;15.80;;
3943;SDS011;1986;52.546;13.428;2023-12-29T06:56:25;16.30;;;15.80;;
3943;SDS011;1986;52.546;13.428;2023-12-29T06:58:53;16.87;;;16.27;;
3943;SDS011;1986;52.546;13.428;2023-12-29T07:01:22;17.00;;;16.40;;
3943;SDS011;1986;52.546;13.428;2023-12-29T07:03:50;16.70;;;16.10;;
3943;SDS011;1986;52.546;13.428;2023-12-29T07:06:17;17.00;;;16.40;;
3943;SDS011;1986;52.546;13.428;2023-12-29T07:08:44;16.90;;;16.30;;
3943;SDS011;1986;52.546;13.428;2023-12-29T07:11:13;17.10;;;16.50;;
3943;SDS011;1986;52.546;13.428;2023-12-29T07:13:40;16.80;;;16.20;;
3943;SDS011;1986;52.546;13.428;2023-12-29T07:16:07;17.00;;;16.30;;
3943;SDS011;1986;52.546;13.428;2023-12-29T07:18:37;17.20;;;16.50;;
3943;SDS011;1986;52.546;13.428;2023-12-29T07:21:07;16.90;;;16.30;;
3943;SDS011;1986;52.546;13.428;2023-12-29T07:23:34;17.30;;;16.60;;
3943;SDS011;1986;52.546;13.428;2023-12-29T07:26:01;17.50;;;16.80;;
3943;SDS011;1986;52.546;13.428;2023-12-29T07:28:34;17.50;;;16.80;;
3943;SDS011;1986;52.546;13.428;2023-12-29T07:31:01;17.23;;;16.53;;
3943;SDS011;1986;52.546;13.428;2023-12-29T07:33:29;16.97;;;16.37;;
3943;SDS011;1986;52.546;13.428;2023-12-29T07:35:57;16.90;;;16.30;;
3943;SDS011;1986;52.546;13.428;2023-12-29T07:38:23;17.27;;;16.67;;
3943;SDS011;1986;52.546;13.428;2023-12-29T07:40:51;17.40;;;16.80;;
3943;SDS011;1986;52.546;13.428;2023-12-29T07:43:18;17.00;;;16.40;;
3943;SDS011;1986;52.546;13.428;2023-12-29T07:45:46;17.03;;;16.43;;
3943;SDS011;1986;52.546;13.428;2023-12-29T07:48:13;17.40;;;16.70;;
3943;SDS011;1986;52.546;13.428;2023-12-29T07:50:41;17.20;;;16.60;;
3943;SDS011;1986;52.546;13.428;2023-12-29T07:53:08;17.10;;;16.40;;
3943;SDS011;1986;52.546;13.428;2023-12-29T07:55:37;16.90;;;16.30;;
3943;SDS011;1986;52.546;13.428;2023-12-29T07:58:04;17.20;;;16.60;;
3943;SDS011;1986;52.546;13.428;2023-12-29T08:00:32;17.40;;;16.80;;
3943;SDS011;1986;52.546;13.428;2023-12-29T08:03:02;17.30;;;16.70;;
3943;SDS011;1986;52.546;13.428;2023-12-29T08:05:32;17.20;;;16.60;;
3943;SDS011;1986;52.546;13.428;2023-12-29T08:08:00;17.30;;;16.70;;
3943;SDS011;1986;52.546;13.428;2023-12-29T08:10:27;17.73;;;17.07;;
3943;SDS011;1986;52.546;13.428;2023-12-29T08:12:53;17.70;;;17.10;;
3943;SDS011;1986;52.546;13.428;2023-12-29T08:15:20;17.90;;;17.20;;
3943;SDS011;1986;52.546;13.428;2023-12-29T08:17:47;17.53;;;16.93;;
3943;SDS011;1986;52.546;13.428;2023-12-29T08:20:16;18.00;;;17.30;;
3943;SDS011;1986;52.546;13.428;2023-12-29T08:22:43;17.80;;;17.10;;
3943;SDS011;1986;52.546;13.428;2023-12-29T08:25:10;18.07;;;17.37;;
3943;SDS011;1986;52.546;13.428;2023-12-29T08:27:38;17.50;;;16.90;;
3943;SDS011;1986;52.546;13.428;2023-12-29T08:30:06;17.80;;;17.20;;
3943;SDS011;1986;52.546;13.428;2023-12-29T08:32:34;17.70;;;17.10;;
3943;SDS011;1986;52.546;13.428;2023-12-29T08:35:01;17.47;;;16.87;;
3943;SDS011;1986;52.546;13.428;2023-12-29T08:37:29;17.90;;;17.20;;
3943;SDS011;1986;52.546;13.428;2023-12-29T08:39:58;17.40;;;16.80;;
3943;SDS011;1986;52.546;13.428;2023-12-29T08:42:25;17.80;;;17.10;;
3943;SDS011;1986;52.546;13.428;2023-12-29T08:44:52;17.43;;;16.83;;
3943;SDS011;1986;52.546;13.428;2023-12-29T08:47:20;17.80;;;17.10;;
3943;SDS011;1986;52.546;13.428;2023-12-29T08:49:47;17.40;;;16.80;;
3943;SDS011;1986;52.546;13.428;2023-12-29T08:52:16;17.40;;;16.80;;
3943;SDS011;1986;52.546;13.428;2023-12-29T08:54:51;17.60;;;16.90;;
3943;SDS011;1986;52.546;13.428;2023-12-29T08:57:27;17.43;;;16.83;;
3943;SDS011;1986;52.546;13.428;2023-12-29T08:59:58;17.77;;;17.17;;
3943;SDS011;1986;52.546;13.428;2023-12-29T09:02:25;17.70;;;17.10;;
3943;SDS011;1986;52.546;13.428;2023-12-29T09:04:52;18.00;;;17.30;;
3943;SDS011;1986;52.546;13.428;2023-12-29T09:07:20;17.50;;;16.80;;
3943;SDS011;1986;52.546;13.428;2023-12-29T09:09:48;17.20;;;16.60;;
3943;SDS011;1986;52.546;13.428;2023-12-29T09:12:22;17.20;;;16.60;;
3943;SDS011;1986;52.546;13.428;2023-12-29T09:14:49;17.70;;;17.00;;
3943;SDS011;1986;52.546;13.428;2023-12-29T09:17:20;17.70;;;17.00;;
3943;SDS011;1986;52.546;13.428;2023-12-29T09:19:47;17.70;;;17.10;;
3943;SDS011;1986;52.546;13.428;2023-12-29T09:22:15;17.70;;;17.00;;
3943;SDS011;1986;52.546;13.428;2023-12-29T09:24:44;17.90;;;17.20;;
3943;SDS011;1986;52.546;13.428;2023-12-29T09:27:13;18.13;;;17.43;;
3943;SDS011;1986;52.546;13.428;2023-12-29T09:29:43;17.20;;;16.60;;
3943;SDS011;1986;52.546;13.428;2023-12-29T09:32:10;17.60;;;16.90;;
3943;SDS011;1986;52.546;13.428;2023-12-29T09:34:39;17.30;;;16.70;;
3943;SDS011;1986;52.546;13.428;2023-12-29T09:37:08;17.20;;;16.60;;
3943;SDS011;1986;52.546;13.428;2023-12-29T09:39:40;17.30;;;16.70;;
3943;SDS011;1986;52.546;13.428;2023-12-29T09:42:09;17.10;;;16.50;;
3943;SDS011;1986;52.546;13.428;2023-12-29T09:44:57;17.50;;;16.90;;
3943;SDS011;1986;52.546;13.428;2023-12-29T09:47:32;17.23;;;16.63;;
3943;SDS011;1986;52.546;13.428;2023-12-29T09:50:06;17.30;;;16.70;;
3943;SDS011;1986;52.546;13.428;2023-12-29T09:52:36;16.70;;;16.20;;
3943;SDS011;1986;52.546;13.428;2023-12-29T09:55:04;17.20;;;16.60;;
3943;SDS011;1986;52.546;13.428;2023-12-29T09:57:38;16.83;;;16.27;;
3943;SDS011;1986;52.546;13.428;2023-12-29T10:00:06;16.60;;;16.10;;
3943;SDS011;1986;52.546;13.428;2023-12-29T10:02:37;16.90;;;16.40;;
3943;SDS011;1986;52.546;13.428;2023-12-29T10:05:08;17.10;;;16.50;;
3943;SDS011;1986;52.546;13.428;2023-12-29T10:07:36;16.60;;;16.10;;
3943;SDS011;1986;52.546;13.428;2023-12-29T10:10:04;17.03;;;16.43;;
3943;SDS011;1986;52.546;13.428;2023-12-29T10:12:33;17.00;;;16.40;;
3943;SDS011;1986;52.546;13.428;2023-12-29T10:15:10;17.20;;;16.60;;
3943;SDS011;1986;52.546;13.428;2023-12-29T10:17:43;17.03;;;16.43;;
3943;SDS011;1986;52.546;13.428;2023-12-29T10:20:23;17.30;;;16.70;;
3943;SDS011;1986;52.546;13.428;2023-12-29T10:23:03;17.43;;;16.80;;
3943;SDS011;1986;52.546;13.428;2023-12-29T10:25:34;16.90;;;16.30;;
3943;SDS011;1986;52.546;13.428;2023-12-29T10:28:06;17.00;;;16.40;;
3943;SDS011;1986;52.546;13.428;2023-12-29T10:30:34;17.63;;;17.03;;
3943;SDS011;1986;52.546;13.428;2023-12-29T10:33:03;17.87;;;17.27;;
3943;SDS011;1986;52.546;13.428;2023-12-29T10:35:34;17.90;;;17.30;;
3943;SDS011;1986;52.546;13.428;2023-12-29T10:38:08;17.70;;;17.10;;
3943;SDS011;1986;52.546;13.428;2023-12-29T10:40:38;18.03;;;17.33;;
3943;SDS011;1986;52.546;13.428;2023-12-29T10:43:07;18.10;;;17.40;;
3943;SDS011;1986;52.546;13.428;2023-12-29T10:45:37;18.10;;;17.40;;
3943;SDS011;1986;52.546;13.428;2023-12-29T10:48:05;18.30;;;17.60;;
3943;SDS011;1986;52.546;13.428;2023-12-29T10:50:44;18.00;;;17.30;;
3943;SDS011;1986;52.546;13.428;2023-12-29T10:53:11;18.50;;;17.80;;
3943;SDS011;1986;52.546;13.428;2023-12-29T10:55:39;18.50;;;17.70;;
3943;SDS011;1986;52.546;13.428;2023-12-29T10:58:06;18.70;;;17.90;;
3943;SDS011;1986;52.546;13.428;2023-12-29T11:00:33;18.20;;;17.50;;
3943;SDS011;1986;52.546;13.428;2023-12-29T11:03:13;17.80;;;17.10;;
3943;SDS011;1986;52.546;13.428;2023-12-29T11:05:41;18.07;;;17.37;;
3943;SDS011;1986;52.546;13.428;2023-12-29T11:08:14;18.00;;;17.30;;
3943;SDS011;1986;52.546;13.428;2023-12-29T11:10:42;18.20;;;17.50;;
3943;SDS011;1986;52.546;13.428;2023-12-29T11:13:10;18.20;;;17.50;;
3943;SDS011;1986;52.546;13.428;2023-12-29T11:15:38;18.20;;;17.50;;
3943;SDS011;1986;52.546;13.428;2023-12-29T11:18:11;18.63;;;17.93;;
3943;SDS011;1986;52.546;13.428;2023-12-29T11:20:41;18.90;;;18.10;;
3943;SDS011;1986;52.546;13.428;2023-12-29T11:23:10;17.80;;;17.20;;
3943;SDS011;1986;52.546;13.428;2023-12-29T11:25:38;18.10;;;17.40;;
3943;SDS011;1986;52.546;13.428;2023-12-29T11:28:11;18.20;;;17.50;;
3943;SDS011;1986;52.546;13.428;2023-12-29T11:30:39;18.40;;;17.70;;
3943;SDS011;1986;52.546;13.428;2023-12-29T11:33:09;18.30;;;17.60;;
3943;SDS011;1986;52.546;13.428;2023-12-29T11:35:44;18.20;;;17.50;;
3943;SDS011;1986;52.546;13.428;2023-12-29T11:38:30;18.47;;;17.67;;
3943;SDS011;1986;52.546;13.428;2023-12-29T11:41:21;18.00;;;17.30;;
3943;SDS011;1986;52.546;13.428;2023-12-29T11:43:58;19.00;;;18.30;;
3943;SDS011;1986;52.546;13.428;2023-12-29T11:46:33;18.57;;;17.77;;
3943;SDS011;1986;52.546;13.428;2023-12-29T11:49:13;18.30;;;17.60;;
3943;SDS011;1986;52.546;13.428;2023-12-29T11:51:41;18.20;;;17.50;;
3943;SDS011;1986;52.546;13.428;2023-12-29T11:54:09;18.10;;;17.40;;
3943;SDS011;1986;52.546;13.428;2023-12-29T11:56:38;18.50;;;17.70;;
3943;SDS011;1986;52.546;13.428;2023-12-29T11:59:13;18.70;;;17.90;;
3943;SDS011;1986;52.546;13.428;2023-12-29T12:01:41;18.57;;;17.77;;
3943;SDS011;1986;52.546;13.428;2023-12-29T12:07:16;18.23;;;17.50;;
3943;SDS011;1986;52.546;13.428;2023-12-29T12:13:10;19.00;;;18.30;;
3943;SDS011;1986;52.546;13.428;2023-12-29T12:15:38;18.20;;;17.50;;
3943;SDS011;1986;52.546;13.428;2023-12-29T12:18:10;17.90;;;17.30;;
3943;SDS011;1986;52.546;13.428;2023-12-29T12:20:42;17.70;;;17.10;;
3943;SDS011;1986;52.546;13.428;2023-12-29T12:23:17;17.83;;;17.23;;
3943;SDS011;1986;52.546;13.428;2023-12-29T12:25:47;17.60;;;17.00;;
3943;SDS011;1986;52.546;13.428;2023-12-29T12:28:25;17.70;;;17.10;;
3943;SDS011;1986;52.546;13.428;2023-12-29T12:30:52;17.83;;;17.13;;
3943;SDS011;1986;52.546;13.428;2023-12-29T12:33:32;17.50;;;16.90;;
3943;SDS011;1986;52.546;13.428;2023-12-29T12:38:58;17.27;;;16.67;;
3943;SDS011;1986;52.546;13.428;2023-12-29T12:41:26;16.80;;;16.20;;
3943;SDS011;1986;52.546;13.428;2023-12-29T12:43:57;16.60;;;16.00;;
3943;SDS011;1986;52.546;13.428;2023-12-29T12:46:49;16.33;;;15.73;;
3943;SDS011;1986;52.546;13.428;2023-12-29T12:49:22;15.80;;;15.30;;
3943;SDS011;1986;52.546;13.428;2023-12-29T12:51:59;15.70;;;15.20;;
3943;SDS011;1986;52.546;13.428;2023-12-29T12:54:27;15.77;;;15.27;;
3943;SDS011;1986;52.546;13.428;2023-12-29T12:56:55;15.70;;;15.20;;
3943;SDS011;1986;52.546;13.428;2023-12-29T12:59:24;15.30;;;14.80;;
3943;SDS011;1986;52.546;13.428;2023-12-29T13:01:56;14.90;;;14.50;;
3943;SDS011;1986;52.546;13.428;2023-12-29T13:04:23;14.40;;;14.00;;
3943;SDS011;1986;52.546;13.428;2023-12-29T13:06:54;14.50;;;14.10;;
3943;SDS011;1986;52.546;13.428;2023-12-29T13:09:24;15.00;;;14.60;;
3943;SDS011;1986;52.546;13.428;2023-12-29T13:12:06;15.10;;;14.70;;
3943;SDS011;1986;52.546;13.428;2023-12-29T13:14:34;15.17;;;14.77;;
3943;SDS011;1986;52.546;13.428;2023-12-29T13:17:05;14.60;;;14.20;;
3943;SDS011;1986;52.546;13.428;2023-12-29T13:19:34;14.70;;;14.30;;
3943;SDS011;1986;52.546;13.428;2023-12-29T13:22:01;14.80;;;14.40;;
3943;SDS011;1986;52.546;13.428;2023-12-29T13:24:35;15.10;;;14.70;;
3943;SDS011;1986;52.546;13.428;2023-12-29T13:27:10;14.67;;;14.27;;
3943;SDS011;1986;52.546;13.428;2023-12-29T13:29:37;15.20;;;14.80;;
3943;SDS011;1986;52.546;13.428;2023-12-29T13:32:13;15.00;;;14.60;;
3943;SDS011;1986;52.546;13.428;2023-12-29T13:34:48;14.93;;;14.53;;
3943;SDS011;1986;52.546;13.428;2023-12-29T13:37:22;15.10;;;14.70;;
3943;SDS011;1986;52.546;13.428;2023-12-29T13:40:08;15.00;;;14.60;;
3943;SDS011;1986;52.546;13.428;2023-12-29T13:42:42;15.60;;;15.10;;
3943;SDS011;1986;52.546;13.428;2023-12-29T13:45:14;15.30;;;14.80;;
3943;SDS011;1986;52.546;13.428;2023-12-29T13:47:48;15.80;;;15.30;;
3943;SDS011;1986;52.546;13.428;2023-12-29T13:50:18;15.90;;;15.40;;
3943;SDS011;1986;52.546;13.428;2023-12-29T13:53:00;15.63;;;15.13;;
3943;SDS011;1986;52.546;13.428;2023-12-29T13:55:28;15.93;;;15.43;;
3943;SDS011;1986;52.546;13.428;2023-12-29T13:58:00;15.90;;;15.40;;
3943;SDS011;1986;52.546;13.428;2023-12-29T14:00:39;16.10;;;15.60;;
3943;SDS011;1986;52.546;13.428;2023-12-29T14:03:10;16.30;;;15.80;;
3943;SDS011;1986;52.546;13.428;2023-12-29T14:05:51;16.00;;;15.50;;
3943;SDS011;1986;52.546;13.428;2023-12-29T14:08:32;15.90;;;15.40;;
3943;SDS011;1986;52.546;13.428;2023-12-29T14:11:08;15.97;;;15.47;;
3943;SDS011;1986;52.546;13.428;2023-12-29T14:13:40;16.00;;;15.50;;
3943;SDS011;1986;52.546;13.428;2023-12-29T14:16:09;16.20;;;15.70;;
3943;SDS011;1986;52.546;13.428;2023-12-29T14:18:42;15.97;;;15.47;;
3943;SDS011;1986;52.546;13.428;2023-12-29T14:21:36;16.30;;;15.80;;
3943;SDS011;1986;52.546;13.428;2023-12-29T14:24:08;15.83;;;15.33;;
3943;SDS011;1986;52.546;13.428;2023-12-29T14:26:39;16.07;;;15.57;;
3943;SDS011;1986;52.546;13.428;2023-12-29T14:29:09;16.10;;;15.60;;
3943;SDS011;1986;52.546;13.428;2023-12-29T14:31:38;15.97;;;15.47;;
3943;SDS011;1986;52.546;13.428;2023-12-29T14:34:11;16.20;;;15.70;;
3943;SDS011;1986;52.546;13.428;2023-12-29T14:36:53;15.90;;;15.40;;
3943;SDS011;1986;52.546;13.428;2023-12-29T14:39:34;15.87;;;15.40;;
3943;SDS011;1986;52.546;13.428;2023-12-29T14:42:10;16.20;;;15.70;;
3943;SDS011;1986;52.546;13.428;2023-12-29T14:44:52;16.40;;;15.90;;
3943;SDS011;1986;52.546;13.428;2023-12-29T14:47:33;16.60;;;16.10;;
3943;SDS011;1986;52.546;13.428;2023-12-29T14:50:04;16.10;;;15.60;;
3943;SDS011;1986;52.546;13.428;2023-12-29T14:52:45;16.50;;;16.00;;
3943;SDS011;1986;52.546;13.428;2023-12-29T14:55:26;16.20;;;15.70;;
3943;SDS011;1986;52.546;13.428;2023-12-29T14:57:58;16.30;;;15.80;;
3943;SDS011;1986;52.546;13.428;2023-12-29T15:00:27;16.03;;;15.53;;